Time;durP1;ratioP1;P1;durP2;ratioP2;P2;SDS_P1;SDS_P2;PMS_P1;PMS_P2;Temp;Humidity;BMP_temperature;BMP_pressure;BME280_temperature;BME280_humidity;BME280_pressure;Samples;Min_cycle;Max_cycle;Signal;HPM_P1;HPM_P2
2022/12/07 00:02:23;;;;;;;26.80;18.20;;;;;;;1.91;86.33;99798.89;103000;1333;37208;-74
2022/12/07 00:04:57;;;;;;;24.80;17.10;;;;;;;1.92;86.35;99799.06;102949;1331;37139;-73
2022/12/07 00:07:31;;;;;;;25.00;17.80;;;;;;;1.89;86.08;99792.90;102992;1330;37202;-73
2022/12/07 00:10:08;;;;;;;21.80;16.20;;;;;;;1.86;86.15;99786.91;102982;1327;37158;-73
2022/12/07 00:12:43;;;;;;;21.70;16.30;;;;;;;1.86;86.25;99785.19;103037;1331;37157;-73
2022/12/07 00:15:17;;;;;;;27.30;18.20;;;;;;;1.83;86.16;99780.06;102953;1328;36977;-73
2022/12/07 00:17:51;;;;;;;38.20;23.90;;;;;;;1.81;86.23;99773.89;102928;1331;37318;-74
2022/12/07 00:20:26;;;;;;;41.90;25.60;;;;;;;1.80;86.28;99777.17;102930;1329;37732;-73
2022/12/07 00:23:00;;;;;;;28.70;19.50;;;;;;;1.83;86.55;99774.40;102973;1330;37388;-70
2022/12/07 00:25:36;;;;;;;41.20;25.30;;;;;;;1.83;86.40;99779.38;102963;1329;38729;-74
2022/12/07 00:28:10;;;;;;;24.00;17.10;;;;;;;1.84;86.42;99779.37;102961;1329;36739;-74
2022/12/07 00:30:44;;;;;;;27.20;18.30;;;;;;;1.86;86.51;99781.74;102961;1331;36156;-73
2022/12/07 00:33:19;;;;;;;34.30;21.20;;;;;;;1.89;86.51;99773.64;102955;1333;36728;-73
2022/12/07 00:36:03;;;;;;;35.70;21.90;;;;;;;1.93;86.67;99776.35;102957;1329;37318;-73
2022/12/07 00:38:37;;;;;;;32.20;20.90;;;;;;;1.95;86.60;99769.94;102982;1331;38281;-71
2022/12/07 00:41:14;;;;;;;31.60;20.60;;;;;;;1.96;86.65;99770.62;102965;1329;37163;-73
2022/12/07 00:43:49;;;;;;;35.90;22.30;;;;;;;1.98;86.80;99770.27;102992;1329;36575;-72
2022/12/07 00:46:24;;;;;;;33.60;21.20;;;;;;;1.98;86.78;99764.24;102999;1331;36245;-72
2022/12/07 00:48:59;;;;;;;34.50;20.30;;;;;;;1.99;86.78;99763.36;102970;1329;37424;-72
2022/12/07 00:51:33;;;;;;;32.20;20.60;;;;;;;2.03;86.93;99767.27;102948;1329;37294;-71
2022/12/07 00:54:09;;;;;;;40.30;24.10;;;;;;;2.09;87.04;99767.87;103004;1328;36235;-71
2022/12/07 00:56:43;;;;;;;45.80;25.30;;;;;;;2.12;86.87;99766.80;103035;1329;37826;-73
2022/12/07 00:59:17;;;;;;;40.00;24.30;;;;;;;2.15;87.14;99765.71;103008;1328;37137;-73
2022/12/07 01:01:51;;;;;;;38.40;23.00;;;;;;;2.13;86.73;99762.84;102961;1329;37139;-74
2022/12/07 01:04:25;;;;;;;38.50;23.20;;;;;;;2.14;86.85;99763.34;103009;1331;37311;-74
2022/12/07 01:06:59;;;;;;;34.10;22.70;;;;;;;2.18;87.05;99760.20;102958;1329;39234;-73
2022/12/07 01:09:33;;;;;;;36.90;22.60;;;;;;;2.20;86.95;99760.14;102998;1330;37225;-74
2022/12/07 01:12:10;;;;;;;38.80;23.50;;;;;;;2.23;87.00;99758.39;103002;1329;37366;-73
2022/12/07 01:14:46;;;;;;;39.90;24.10;;;;;;;2.27;87.27;99760.23;103011;1327;37128;-72
2022/12/07 01:17:20;;;;;;;41.20;24.30;;;;;;;2.30;87.19;99758.11;102422;1329;911340;-73
2022/12/07 01:19:54;;;;;;;35.20;22.70;;;;;;;2.28;87.00;99760.39;102996;1331;37737;-73
2022/12/07 01:22:27;;;;;;;39.80;23.40;;;;;;;2.24;86.80;99757.34;103024;1330;36619;-74
2022/12/07 01:25:02;;;;;;;36.60;23.50;;;;;;;2.24;86.74;99755.80;103004;1328;37182;-74
2022/12/07 01:27:36;;;;;;;35.20;22.70;;;;;;;2.25;86.81;99749.93;103019;1328;37063;-74
2022/12/07 01:30:18;;;;;;;37.10;23.50;;;;;;;2.26;86.85;99746.82;103011;1329;37432;-75
2022/12/07 01:32:51;;;;;;;41.30;24.90;;;;;;;2.29;87.04;99744.53;103004;1328;38717;-72
2022/12/07 01:35:27;;;;;;;37.20;22.50;;;;;;;2.28;86.87;99741.27;103032;1330;37212;-72
2022/12/07 01:38:02;;;;;;;37.70;22.90;;;;;;;2.29;86.93;99741.79;103007;1328;37992;-72
2022/12/07 01:40:35;;;;;;;36.10;22.20;;;;;;;2.31;87.12;99741.75;103009;1329;37217;-72
2022/12/07 01:43:17;;;;;;;39.50;22.70;;;;;;;2.30;86.94;99743.31;103004;1327;37426;-73
2022/12/07 01:45:51;;;;;;;33.70;21.90;;;;;;;2.32;87.16;99745.02;103049;1331;37265;-72
2022/12/07 01:48:27;;;;;;;39.40;23.10;;;;;;;2.37;87.20;99742.20;103010;1330;37348;-73
2022/12/07 01:51:04;;;;;;;34.90;23.00;;;;;;;2.39;87.06;99742.33;103065;1329;37557;-73
2022/12/07 01:53:39;;;;;;;33.10;20.10;;;;;;;2.41;87.14;99742.98;102996;1330;37472;-73
2022/12/07 01:56:16;;;;;;;35.00;20.40;;;;;;;2.39;86.99;99741.47;103039;1326;37565;-73
2022/12/07 01:58:50;;;;;;;29.20;18.20;;;;;;;2.38;87.05;99740.64;102907;1330;176174;-73
2022/12/07 02:01:24;;;;;;;25.30;17.60;;;;;;;2.41;87.15;99737.48;103035;1330;37230;-73
2022/12/07 02:03:58;;;;;;;25.20;17.60;;;;;;;2.44;87.24;99735.20;103003;1330;37134;-74
2022/12/07 02:06:32;;;;;;;26.50;16.80;;;;;;;2.48;87.26;99734.80;103006;1329;38807;-73
2022/12/07 02:09:07;;;;;;;24.70;15.80;;;;;;;2.48;87.19;99728.24;103041;1326;37127;-74
2022/12/07 02:11:40;;;;;;;22.30;14.20;;;;;;;2.50;87.39;99728.38;103029;1328;37213;-72
2022/12/07 02:14:14;;;;;;;22.00;14.00;;;;;;;2.50;87.37;99725.10;102984;1330;37216;-71
2022/12/07 02:17:08;;;;;;;18.10;12.70;;;;;;;2.50;87.16;99727.01;103002;1330;37271;-73
2022/12/07 02:20:10;;;;;;;17.80;12.30;;;;;;;2.52;87.40;99723.38;103029;1330;37217;-74
2022/12/07 02:23:16;;;;;;;17.50;12.80;;;;;;;2.52;87.12;99728.52;102990;1327;37209;-72
2022/12/07 02:26:04;;;;;;;17.30;12.00;;;;;;;2.51;87.33;99728.20;103045;1330;37146;-74
2022/12/07 02:28:44;;;;;;;15.50;11.10;;;;;;;2.53;87.43;99726.11;102353;1332;911957;-74
2022/12/07 02:31:20;;;;;;;17.70;11.30;;;;;;;2.53;87.22;99724.73;103011;1328;37421;-74
2022/12/07 02:33:58;;;;;;;14.10;10.60;;;;;;;2.53;87.35;99723.69;103019;1329;36474;-74
2022/12/07 02:36:33;;;;;;;21.00;13.40;;;;;;;2.57;87.28;99723.12;103040;1329;37208;-74
2022/12/07 02:39:12;;;;;;;18.20;13.00;;;;;;;2.60;87.56;99724.27;103023;1329;37664;-71
2022/12/07 02:41:48;;;;;;;19.20;12.70;;;;;;;2.64;87.49;99724.89;103044;1329;37118;-73
2022/12/07 02:44:23;;;;;;;16.40;11.60;;;;;;;2.66;87.44;99726.77;103028;1330;37131;-73
2022/12/07 02:47:00;;;;;;;18.40;12.30;;;;;;;2.66;87.47;99719.70;103025;1329;37204;-73
2022/12/07 02:49:34;;;;;;;17.10;12.20;;;;;;;2.67;87.53;99725.02;102954;1332;37224;-74
2022/12/07 02:52:08;;;;;;;18.30;12.50;;;;;;;2.69;87.55;99720.15;103049;1326;37840;-75
2022/12/07 02:54:42;;;;;;;18.50;12.40;;;;;;;2.73;87.36;99723.89;103004;1330;36510;-74
2022/12/07 02:57:29;;;;;;;17.50;11.90;;;;;;;2.75;87.57;99720.76;103047;1328;37474;-73
2022/12/07 03:00:07;;;;;;;13.60;10.20;;;;;;;2.73;87.24;99722.86;103000;1330;37456;-74
2022/12/07 03:02:48;;;;;;;12.90;9.10;;;;;;;2.68;87.18;99722.93;103019;1329;37216;-74
2022/12/07 03:05:46;;;;;;;13.40;10.00;;;;;;;2.68;87.27;99720.71;102995;1324;37513;-73
2022/12/07 03:08:25;;;;;;;11.80;8.40;;;;;;;2.73;87.69;99720.11;102958;1328;38551;-73
2022/12/07 03:10:59;;;;;;;;;;;;;;;2.77;87.66;99722.95;103035;1331;36443;-74
2022/12/07 03:13:37;;;;;;;10.00;8.20;;;;;;;2.78;87.63;99717.61;103038;1330;37279;-72
2022/12/07 03:16:15;;;;;;;9.50;8.30;;;;;;;2.82;87.47;99719.42;103003;1330;37130;-73
2022/12/07 03:18:52;;;;;;;13.00;8.10;;;;;;;2.84;87.48;99718.36;103042;1328;37521;-74
2022/12/07 03:21:28;;;;;;;10.00;7.90;;;;;;;2.83;87.32;99714.94;103040;1328;36498;-73
2022/12/07 03:24:04;;;;;;;8.90;7.50;;;;;;;2.80;87.23;99716.20;103004;1327;37327;-73
2022/12/07 03:26:39;;;;;;;8.80;6.80;;;;;;;2.80;87.37;99715.51;102902;1330;174952;-73
2022/12/07 03:29:18;;;;;;;9.00;6.90;;;;;;;2.79;87.09;99713.11;103013;1331;37112;-75
2022/12/07 03:31:55;;;;;;;9.00;7.60;;;;;;;2.81;87.17;99712.20;103049;1329;37392;-74
2022/12/07 03:34:30;;;;;;;9.80;8.40;;;;;;;2.80;87.00;99706.21;103023;1326;37213;-71
2022/12/07 03:37:06;;;;;;;9.20;8.00;;;;;;;2.78;87.04;99705.38;103061;1330;36926;-73
2022/12/07 03:39:42;;;;;;;8.70;7.70;;;;;;;2.78;87.32;99701.42;103017;1329;37092;-73
2022/12/07 03:42:16;;;;;;;9.30;8.00;;;;;;;2.80;87.28;99698.97;103032;1327;37374;-73
2022/12/07 03:44:50;;;;;;;9.70;7.80;;;;;;;2.79;87.07;99694.16;103053;1330;37115;-73
2022/12/07 03:47:27;;;;;;;10.60;8.10;;;;;;;2.77;86.92;99685.92;103019;1329;37119;-74
2022/12/07 03:50:04;;;;;;;13.20;8.70;;;;;;;2.75;86.95;99690.77;102892;1330;174934;-74
2022/12/07 03:52:42;;;;;;;8.90;7.50;;;;;;;2.77;87.17;99687.50;103030;1327;37118;-72
2022/12/07 03:55:19;;;;;;;8.40;7.00;;;;;;;2.77;87.18;99682.48;103048;1330;38451;-71
2022/12/07 03:57:55;;;;;;;9.00;7.10;;;;;;;2.77;87.28;99679.90;103009;1330;37097;-71
2022/12/07 04:00:30;;;;;;;10.90;7.40;;;;;;;2.77;87.05;99680.23;103039;1330;37228;-72
2022/12/07 04:03:04;;;;;;;12.00;8.20;;;;;;;2.76;86.96;99680.61;103011;1326;37121;-74
2022/12/07 04:05:38;;;;;;;23.60;11.00;;;;;;;2.76;86.94;99680.45;103031;1330;37228;-73
2022/12/07 04:08:12;;;;;;;14.40;9.10;;;;;;;2.71;86.88;99673.80;103005;1328;38320;-74
2022/12/07 04:10:45;;;;;;;12.30;7.10;;;;;;;2.71;87.07;99678.64;103067;1330;37228;-74
2022/12/07 04:13:19;;;;;;;16.50;10.30;;;;;;;2.69;86.92;99672.29;103013;1330;37275;-74
2022/12/07 04:15:53;;;;;;;22.90;12.60;;;;;;;2.68;86.72;99668.52;103014;1329;37575;-74
2022/12/07 04:18:27;;;;;;;11.60;8.70;;;;;;;2.65;86.65;99671.84;103016;1328;37048;-74
2022/12/07 04:21:01;;;;;;;10.10;8.40;;;;;;;2.64;86.54;99671.36;102990;1328;37218;-72
2022/12/07 04:23:35;;;;;;;13.70;9.70;;;;;;;2.65;87.03;99671.67;102998;1328;36844;-73
2022/12/07 04:26:09;;;;;;;14.90;10.00;;;;;;;2.64;86.71;99678.92;103001;1329;37370;-72
2022/12/07 04:28:44;;;;;;;12.10;9.20;;;;;;;2.62;86.81;99676.20;103021;1330;37324;-72
2022/12/07 04:31:17;;;;;;;9.60;7.00;;;;;;;2.57;86.56;99675.75;103041;1331;37267;-72
2022/12/07 04:33:51;;;;;;;9.90;7.60;;;;;;;2.54;86.54;99675.64;102984;1328;37224;-72
2022/12/07 04:36:26;;;;;;;12.60;8.20;;;;;;;2.51;86.78;99672.60;103037;1327;36450;-72
2022/12/07 04:39:00;;;;;;;9.20;8.10;;;;;;;2.51;86.68;99672.08;103021;1328;36843;-72
2022/12/07 04:41:35;;;;;;;9.20;6.70;;;;;;;2.52;86.71;99667.41;103021;1328;37230;-72
2022/12/07 04:44:09;;;;;;;8.70;6.90;;;;;;;2.49;86.72;99666.93;103038;1329;37170;-73
2022/12/07 04:46:43;;;;;;;8.60;7.10;;;;;;;2.44;86.61;99667.71;103043;1329;37125;-73
2022/12/07 04:49:17;;;;;;;11.90;9.70;;;;;;;2.43;86.69;99665.33;103064;1329;37124;-73
2022/12/07 04:51:51;;;;;;;10.60;7.30;;;;;;;2.43;86.71;99666.54;102978;1332;36487;-72
2022/12/07 04:54:25;;;;;;;9.80;7.40;;;;;;;2.44;86.76;99667.89;103014;1330;38340;-72
2022/12/07 04:56:59;;;;;;;9.50;7.90;;;;;;;2.46;86.76;99669.56;103040;1328;37473;-73
2022/12/07 04:59:32;;;;;;;9.60;7.90;;;;;;;2.45;86.72;99664.95;103018;1330;36880;-73
2022/12/07 05:02:06;;;;;;;12.00;8.60;;;;;;;2.42;86.78;99662.06;103000;1330;37119;-74
2022/12/07 05:04:40;;;;;;;7.80;7.00;;;;;;;2.44;86.91;99658.60;103002;1330;38566;-71
2022/12/07 05:07:14;;;;;;;9.00;7.50;;;;;;;2.42;86.59;99665.17;103017;1327;37230;-72
2022/12/07 05:09:48;;;;;;;17.90;11.80;;;;;;;2.39;86.60;99662.28;103025;1328;38236;-73
2022/12/07 05:12:22;;;;;;;12.60;9.80;;;;;;;2.35;86.48;99656.16;103014;1330;37247;-73
2022/12/07 05:14:56;;;;;;;14.10;10.80;;;;;;;2.34;86.62;99653.08;102894;1329;174984;-72
2022/12/07 05:17:30;;;;;;;18.90;11.60;;;;;;;2.36;86.71;99651.48;103047;1329;37258;-73
2022/12/07 05:20:04;;;;;;;16.50;10.60;;;;;;;2.34;86.64;99649.80;102995;1330;37335;-72
2022/12/07 05:22:38;;;;;;;20.30;12.20;;;;;;;2.32;86.59;99646.40;103037;1330;36727;-75
2022/12/07 05:25:12;;;;;;;13.60;9.80;;;;;;;2.30;86.55;99647.63;103053;1330;37118;-74
2022/12/07 05:27:47;;;;;;;16.00;12.00;;;;;;;2.26;86.51;99647.86;103052;1329;37380;-73
2022/12/07 05:30:21;;;;;;;11.20;9.10;;;;;;;2.26;86.42;99646.99;103047;1329;37256;-74
2022/12/07 05:32:55;;;;;;;17.90;11.70;;;;;;;2.25;86.52;99647.70;103089;1330;37199;-71
2022/12/07 05:35:30;;;;;;;21.50;13.20;;;;;;;2.27;86.75;99649.06;103069;1329;37110;-73
2022/12/07 05:38:04;;;;;;;20.10;12.70;;;;;;;2.23;86.47;99647.04;102964;1329;37180;-73
2022/12/07 05:40:39;;;;;;;14.90;9.90;;;;;;;2.22;86.53;99648.45;103048;1329;36808;-73
2022/12/07 05:43:12;;;;;;;30.90;16.30;;;;;;;2.19;86.33;99650.55;103012;1329;38392;-74
2022/12/07 05:45:46;;;;;;;16.20;11.10;;;;;;;2.19;86.36;99652.79;102907;1330;174942;-73
2022/12/07 05:48:21;;;;;;;14.50;10.60;;;;;;;2.19;86.44;99653.83;102972;1332;37399;-75
2022/12/07 05:50:55;;;;;;;12.50;8.70;;;;;;;2.18;86.43;99654.70;103002;1329;37340;-72
2022/12/07 05:53:29;;;;;;;13.70;9.80;;;;;;;2.15;86.23;99651.81;102985;1329;37880;-72
2022/12/07 05:56:03;;;;;;;15.90;9.80;;;;;;;2.13;86.06;99652.71;103016;1329;37253;-74
2022/12/07 06:01:28;;;;;;;12.40;8.30;;;;;;;2.10;86.16;99649.49;103017;1329;37219;-72
2022/12/07 06:04:02;;;;;;;24.00;14.60;;;;;;;2.10;86.32;99647.61;102982;1329;37221;-72
2022/12/07 06:06:36;;;;;;;9.00;7.70;;;;;;;2.07;86.23;99652.79;102884;1330;172839;-73
2022/12/07 06:09:10;;;;;;;12.20;8.20;;;;;;;2.05;86.20;99649.74;103032;1328;37131;-74
2022/12/07 06:14:35;;;;;;;11.90;7.60;;;;;;;2.00;86.22;99648.77;103033;1330;38331;-72
2022/12/07 06:17:09;;;;;;;12.00;9.90;;;;;;;1.97;86.07;99648.48;102968;1332;40622;-74
2022/12/07 06:19:45;;;;;;;10.90;8.60;;;;;;;1.94;86.13;99646.29;102979;1329;37250;-75
2022/12/07 06:22:18;;;;;;;9.40;6.60;;;;;;;1.93;86.27;99645.45;102999;1330;37105;-75
2022/12/07 06:24:54;;;;;;;7.90;5.70;;;;;;;1.90;86.32;99643.77;103032;1329;37572;-73
2022/12/07 06:27:28;;;;;;;7.00;5.60;;;;;;;1.89;86.37;99644.13;103061;1331;37316;-72
2022/12/07 06:30:06;;;;;;;9.50;6.60;;;;;;;1.90;86.29;99643.24;102996;1330;37373;-74
2022/12/07 06:32:39;;;;;;;7.90;6.70;;;;;;;1.86;86.06;99640.04;103031;1328;37289;-73
2022/12/07 06:35:13;;;;;;;7.70;6.40;;;;;;;1.86;86.34;99637.98;103012;1327;37262;-72
2022/12/07 06:37:47;;;;;;;7.20;6.20;;;;;;;1.84;86.33;99640.92;102987;1328;37243;-73
2022/12/07 06:40:21;;;;;;;7.30;6.30;;;;;;;1.83;86.26;99643.86;103031;1331;37154;-73
2022/12/07 06:42:56;;;;;;;7.10;5.90;;;;;;;1.83;86.50;99637.86;103007;1330;37254;-73
2022/12/07 06:45:33;;;;;;;8.20;6.30;;;;;;;1.84;86.38;99640.08;103053;1329;37189;-74
2022/12/07 06:48:08;;;;;;;7.60;6.30;;;;;;;1.84;86.48;99639.38;103035;1330;38899;-75
2022/12/07 06:50:42;;;;;;;9.00;6.80;;;;;;;1.86;86.67;99641.75;103004;1329;38468;-75
2022/12/07 06:53:17;;;;;;;8.80;6.30;;;;;;;1.86;86.61;99641.77;102736;1330;390575;-74
2022/12/07 06:55:51;;;;;;;7.80;6.60;;;;;;;1.84;86.35;99643.33;102971;1332;37257;-74
2022/12/07 06:58:25;;;;;;;7.10;5.80;;;;;;;1.82;86.30;99641.13;103068;1330;37130;-73
2022/12/07 07:00:59;;;;;;;7.50;5.90;;;;;;;1.84;86.43;99640.77;103012;1330;37562;-78
2022/12/07 07:03:34;;;;;;;9.40;7.00;;;;;;;1.85;86.56;99639.71;103009;1328;37226;-75
2022/12/07 07:06:08;;;;;;;9.00;7.00;;;;;;;1.86;86.42;99641.25;103012;1329;37477;-74
2022/12/07 07:08:42;;;;;;;9.10;7.00;;;;;;;1.82;86.36;99641.81;103028;1328;36567;-73
2022/12/07 07:11:16;;;;;;;9.80;6.30;;;;;;;1.79;86.38;99643.05;102988;1332;36913;-74
2022/12/07 07:13:50;;;;;;;8.10;6.50;;;;;;;1.78;86.30;99645.14;103029;1327;37438;-72
2022/12/07 07:16:25;;;;;;;8.40;7.40;;;;;;;1.78;86.61;99643.95;103049;1329;37131;-73
2022/12/07 07:18:58;;;;;;;8.60;6.90;;;;;;;1.81;86.51;99643.21;103003;1329;36230;-72
2022/12/07 07:21:32;;;;;;;8.80;6.70;;;;;;;1.82;86.72;99639.41;102959;1329;37158;-73
2022/12/07 07:24:07;;;;;;;7.60;6.60;;;;;;;1.83;86.75;99638.02;103028;1330;37534;-72
2022/12/07 07:26:41;;;;;;;8.40;6.20;;;;;;;1.83;86.63;99635.95;103029;1330;36254;-72
2022/12/07 07:29:15;;;;;;;8.00;5.80;;;;;;;1.83;86.77;99641.63;103009;1328;37110;-74
2022/12/07 07:31:49;;;;;;;8.10;6.60;;;;;;;1.82;86.63;99638.89;103019;1330;37148;-73
2022/12/07 07:34:23;;;;;;;9.60;6.60;;;;;;;1.83;86.77;99645.95;102999;1331;37274;-72
2022/12/07 07:36:58;;;;;;;7.70;5.40;;;;;;;1.87;86.82;99645.88;103028;1329;37347;-74
2022/12/07 07:39:32;;;;;;;7.90;6.60;;;;;;;1.87;86.79;99643.63;102999;1332;36485;-73
2022/12/07 07:42:07;;;;;;;8.70;6.50;;;;;;;1.89;86.79;99644.30;103068;1327;36208;-74
2022/12/07 07:44:41;;;;;;;9.30;6.80;;;;;;;1.88;86.70;99647.75;102890;1329;172762;-73
2022/12/07 07:47:14;;;;;;;6.90;6.10;;;;;;;1.87;86.65;99643.65;103051;1327;37207;-75
2022/12/07 07:49:48;;;;;;;6.40;5.60;;;;;;;1.88;86.75;99640.70;102986;1330;38919;-75
2022/12/07 07:52:22;;;;;;;6.90;5.50;;;;;;;1.90;86.79;99640.17;103030;1330;36444;-70
2022/12/07 07:54:56;;;;;;;6.20;5.60;;;;;;;1.92;86.79;99641.16;102901;1330;174966;-72
2022/12/07 07:57:30;;;;;;;8.20;6.40;;;;;;;1.93;86.80;99642.86;103025;1328;37430;-73
2022/12/07 08:00:04;;;;;;;6.50;5.60;;;;;;;1.94;86.99;99644.58;103003;1330;37387;-75
2022/12/07 08:02:38;;;;;;;9.60;6.40;;;;;;;1.93;86.65;99643.38;103005;1327;36299;-76
2022/12/07 08:05:13;;;;;;;8.30;6.40;;;;;;;1.91;86.69;99644.27;103008;1330;37193;-72
2022/12/07 08:07:47;;;;;;;9.60;6.10;;;;;;;1.93;86.99;99646.48;103008;1329;37893;-74
2022/12/07 08:10:21;;;;;;;8.50;5.50;;;;;;;1.97;87.11;99643.66;102993;1330;37156;-74
2022/12/07 08:13:14;;;;;;;7.20;6.30;;;;;;;2.03;87.02;99642.89;103021;1328;37123;-75
2022/12/07 08:15:52;;;;;;;9.90;6.90;;;;;;;2.03;86.84;99645.80;102938;1333;37009;-71
2022/12/07 08:18:26;;;;;;;7.60;6.20;;;;;;;2.03;87.10;99648.55;103015;1330;37466;-72
2022/12/07 08:21:04;;;;;;;8.50;6.80;;;;;;;2.00;86.84;99653.42;103029;1329;37222;-74
2022/12/07 08:23:38;;;;;;;7.80;6.20;;;;;;;2.01;86.94;99652.37;103012;1331;37193;-74
2022/12/07 08:26:17;;;;;;;7.40;5.80;;;;;;;2.04;87.26;99661.10;103048;1331;37136;-74
2022/12/07 08:28:50;;;;;;;9.80;6.80;;;;;;;2.09;87.35;99660.02;103003;1329;37209;-75
2022/12/07 08:31:24;;;;;;;9.10;6.90;;;;;;;2.13;87.35;99660.63;103011;1330;37233;-73
2022/12/07 08:33:58;;;;;;;10.10;7.60;;;;;;;2.18;87.37;99663.48;103064;1330;37214;-75
2022/12/07 08:36:32;;;;;;;7.00;6.30;;;;;;;2.17;87.20;99664.88;103039;1330;37119;-74
2022/12/07 08:39:07;;;;;;;9.00;7.10;;;;;;;2.16;87.13;99664.02;103041;1327;37158;-75
2022/12/07 08:41:41;;;;;;;10.10;7.30;;;;;;;2.17;87.27;99664.00;103032;1329;37311;-73
2022/12/07 08:44:16;;;;;;;10.20;7.30;;;;;;;2.18;87.19;99668.12;103043;1327;36145;-73
2022/12/07 08:46:51;;;;;;;10.90;7.80;;;;;;;2.22;87.52;99668.57;103056;1330;36262;-73
2022/12/07 08:49:28;;;;;;;14.90;9.30;;;;;;;2.25;87.34;99670.07;103071;1330;37221;-73
2022/12/07 08:52:01;;;;;;;12.50;9.20;;;;;;;2.25;87.46;99666.80;103086;1329;37205;-73
2022/12/07 08:54:36;;;;;;;13.80;8.80;;;;;;;2.29;87.55;99667.42;103022;1329;36223;-74
2022/12/07 08:57:09;;;;;;;12.50;9.10;;;;;;;2.32;87.44;99666.36;103037;1330;37153;-74
2022/12/07 08:59:44;;;;;;;12.90;8.80;;;;;;;2.38;87.74;99663.67;103018;1328;38789;-74
2022/12/07 09:02:18;;;;;;;15.50;9.90;;;;;;;2.45;87.60;99664.42;103005;1330;37105;-70
2022/12/07 09:04:52;;;;;;;13.30;10.20;;;;;;;2.49;87.87;99660.73;103012;1328;37251;-72
2022/12/07 09:07:29;;;;;;;13.90;9.50;;;;;;;2.54;87.73;99659.12;103044;1327;37115;-74
2022/12/07 09:10:03;;;;;;;12.60;9.80;;;;;;;2.56;87.70;99652.88;103022;1332;37428;-72
2022/12/07 09:12:37;;;;;;;11.70;9.20;;;;;;;2.61;87.75;99651.60;103058;1329;37208;-72
2022/12/07 09:15:12;;;;;;;12.70;9.50;;;;;;;2.67;87.66;99643.92;103043;1329;37257;-74
2022/12/07 09:17:46;;;;;;;13.10;10.50;;;;;;;2.74;87.82;99643.95;102998;1332;37438;-72
2022/12/07 09:20:23;;;;;;;12.70;9.80;;;;;;;2.77;87.77;99645.46;103013;1331;37295;-72
2022/12/07 09:22:58;;;;;;;13.20;9.20;;;;;;;2.82;87.67;99641.41;103058;1330;37276;-73
2022/12/07 09:25:33;;;;;;;14.50;9.90;;;;;;;2.84;87.61;99639.98;103062;1330;37488;-71
2022/12/07 09:28:08;;;;;;;12.20;9.40;;;;;;;2.88;87.50;99633.55;103026;1327;37129;-72
2022/12/07 09:30:49;;;;;;;11.60;9.10;;;;;;;2.90;87.45;99631.27;102952;1329;174938;-74
2022/12/07 09:33:24;;;;;;;14.40;10.60;;;;;;;2.95;87.67;99633.23;103051;1329;37097;-73
2022/12/07 09:35:59;;;;;;;12.60;9.80;;;;;;;3.00;87.72;99632.63;102989;1332;37139;-72
2022/12/07 09:38:33;;;;;;;15.20;10.00;;;;;;;3.02;87.35;99633.95;103007;1330;37129;-74
2022/12/07 09:41:10;;;;;;;13.40;9.20;;;;;;;3.06;87.56;99633.22;103010;1328;38328;-74
2022/12/07 09:43:45;;;;;;;12.50;9.80;;;;;;;3.09;87.30;99630.71;102974;1330;38498;-74
2022/12/07 09:46:20;;;;;;;11.60;8.90;;;;;;;3.11;87.10;99628.63;103025;1330;37113;-74
2022/12/07 09:48:54;;;;;;;16.20;10.60;;;;;;;3.16;87.05;99628.19;103017;1330;37143;-74
2022/12/07 09:51:28;;;;;;;18.60;12.30;;;;;;;3.18;87.13;99621.92;102983;1327;37314;-74
2022/12/07 09:54:02;;;;;;;14.50;10.70;;;;;;;3.21;87.03;99622.40;103005;1330;36283;-73
2022/12/07 09:56:36;;;;;;;14.00;10.10;;;;;;;3.23;87.00;99619.77;103002;1329;36595;-72
2022/12/07 09:59:13;;;;;;;13.40;9.00;;;;;;;3.26;86.93;99617.99;102988;1331;37248;-72
2022/12/07 10:01:48;;;;;;;15.10;10.10;;;;;;;3.31;86.91;99615.14;102998;1329;36756;-72
2022/12/07 10:04:25;;;;;;;15.50;10.80;;;;;;;3.35;86.90;99615.92;102999;1329;37142;-74
2022/12/07 10:06:59;;;;;;;14.00;9.00;;;;;;;3.35;86.76;99612.45;103038;1329;37146;-71
2022/12/07 10:09:35;;;;;;;12.60;8.90;;;;;;;3.37;86.46;99612.41;103026;1329;37016;-73
2022/12/07 10:12:13;;;;;;;13.70;8.10;;;;;;;3.38;86.25;99612.57;102397;1328;906327;-73
2022/12/07 10:15:00;;;;;;;14.70;9.70;;;;;;;3.38;85.98;99613.60;103037;1330;36254;-72
2022/12/07 10:17:40;;;;;;;15.10;9.60;;;;;;;3.39;86.41;99614.27;103044;1330;38704;-73
2022/12/07 10:20:27;;;;;;;15.00;9.60;;;;;;;3.37;85.77;99612.23;103059;1330;37953;-73
2022/12/07 10:23:06;;;;;;;14.50;10.00;;;;;;;3.34;85.89;99611.44;103010;1330;37244;-72
2022/12/07 10:25:40;;;;;;;15.50;9.70;;;;;;;3.35;85.81;99613.48;103061;1327;37210;-72
2022/12/07 10:28:26;;;;;;;15.70;10.80;;;;;;;3.36;85.72;99608.13;102983;1328;36641;-74
2022/12/07 10:31:04;;;;;;;16.90;11.50;;;;;;;3.36;85.71;99608.48;102977;1328;37387;-74
2022/12/07 10:33:40;;;;;;;16.90;11.00;;;;;;;3.33;85.65;99602.66;103023;1331;37660;-74
2022/12/07 10:36:26;;;;;;;18.20;11.30;;;;;;;3.35;85.65;99601.41;103017;1329;36233;-73
2022/12/07 10:39:12;;;;;;;16.10;11.10;;;;;;;3.38;85.74;99602.03;102779;1330;37157;-72
2022/12/07 10:41:59;;;;;;;13.70;10.60;;;;;;;3.42;85.98;99601.45;102759;1330;38480;-72
2022/12/07 10:44:35;;;;;;;14.10;10.40;;;;;;;3.47;85.89;99604.10;102696;1334;37418;-73
2022/12/07 10:47:24;;;;;;;17.50;11.00;;;;;;;3.49;85.81;99604.05;102785;1333;37216;-74
2022/12/07 10:50:30;;;;;;;14.10;10.40;;;;;;;3.56;86.00;99602.71;102749;1333;36765;-74
2022/12/07 10:53:28;;;;;;;14.20;10.10;;;;;;;3.58;85.78;99602.81;102812;1332;37350;-74
2022/12/07 10:56:18;;;;;;;14.20;9.70;;;;;;;3.58;85.49;99604.17;102797;1329;38169;-74
2022/12/07 10:59:05;;;;;;;14.50;10.90;;;;;;;3.62;85.63;99604.45;102806;1333;38322;-72
2022/12/07 11:01:44;;;;;;;15.90;11.70;;;;;;;3.67;85.86;99601.42;102803;1333;37232;-72
2022/12/07 11:04:28;;;;;;;14.80;10.80;;;;;;;3.70;85.59;99599.64;102794;1333;37142;-72
2022/12/07 11:07:10;;;;;;;12.50;10.20;;;;;;;3.73;85.32;99599.03;102854;1318;37283;-73
2022/12/07 11:10:08;;;;;;;11.70;9.40;;;;;;;3.74;84.97;99597.80;102815;1332;37742;-72
2022/12/07 11:12:59;;;;;;;10.30;9.20;;;;;;;3.79;85.16;99598.91;102796;1331;36924;-73
2022/12/07 11:15:41;;;;;;;12.20;10.40;;;;;;;3.80;84.71;99598.88;102793;1333;37196;-75
2022/12/07 11:18:20;;;;;;;12.80;10.00;;;;;;;3.82;84.97;99599.71;102660;1331;176067;-74
2022/12/07 11:20:58;;;;;;;12.10;9.50;;;;;;;3.84;84.99;99599.66;102690;1332;37181;-74
2022/12/07 11:23:53;;;;;;;12.30;9.60;;;;;;;3.84;84.98;99602.08;102816;1332;37401;-74
2022/12/07 11:26:39;;;;;;;10.70;9.50;;;;;;;3.83;84.97;99598.97;102824;1330;36187;-75
2022/12/07 11:29:48;;;;;;;11.50;9.60;;;;;;;3.89;85.02;99603.67;102756;1330;36640;-74
2022/12/07 11:32:33;;;;;;;12.30;11.00;;;;;;;3.93;84.93;99596.00;102764;1334;37247;-75
2022/12/07 11:35:12;;;;;;;11.90;10.00;;;;;;;3.98;85.02;99588.80;102782;1331;37119;-75
2022/12/07 11:37:45;;;;;;;12.50;10.30;;;;;;;3.99;84.63;99584.81;102881;1332;37157;-74
2022/12/07 11:40:25;;;;;;;14.00;10.30;;;;;;;4.00;84.69;99584.80;103046;1329;37275;-74
2022/12/07 11:43:03;;;;;;;11.50;9.80;;;;;;;4.05;84.55;99584.17;103010;1330;37552;-72
2022/12/07 11:45:38;;;;;;;11.40;10.20;;;;;;;4.09;84.78;99583.71;103033;1330;37211;-73
2022/12/07 11:48:18;;;;;;;11.10;9.70;;;;;;;4.17;84.93;99580.23;102991;1327;37148;-77
2022/12/07 11:50:55;;;;;;;12.80;11.10;;;;;;;4.24;84.65;99581.95;103064;1330;37343;-75
2022/12/07 11:53:31;;;;;;;14.20;10.70;;;;;;;4.28;84.39;99578.75;103011;1329;37132;-75
2022/12/07 11:56:10;;;;;;;11.90;10.20;;;;;;;4.28;84.10;99576.00;103051;1330;36832;-74
2022/12/07 11:58:52;;;;;;;12.90;10.40;;;;;;;4.29;83.81;99574.42;103004;1329;38469;-76
2022/12/07 12:01:43;;;;;;;11.20;10.00;;;;;;;4.28;83.89;99576.00;103045;1330;38312;-74
2022/12/07 12:04:26;;;;;;;13.70;11.00;;;;;;;4.34;83.95;99571.17;103030;1330;37366;-75
2022/12/07 12:07:01;;;;;;;13.00;11.20;;;;;;;4.40;83.94;99569.82;103019;1330;37156;-75
2022/12/07 12:09:37;;;;;;;13.20;10.90;;;;;;;4.42;83.93;99570.63;102985;1327;37162;-74
2022/12/07 12:12:22;;;;;;;11.20;10.10;;;;;;;4.36;83.43;99568.02;103047;1329;37470;-74
2022/12/07 12:15:10;;;;;;;12.90;9.90;;;;;;;4.29;83.03;99568.54;102991;1328;36126;-75